createdAt,value
2018-12-26T00:01:12.872Z,10.00
2018-12-26T00:03:43.895Z,9.60
2018-12-26T00:06:14.748Z,9.77
2018-12-26T00:08:45.786Z,9.43
2018-12-26T00:11:16.789Z,9.50
2018-12-26T00:13:47.868Z,9.23
2018-12-26T00:16:18.681Z,9.03
2018-12-26T00:18:49.595Z,9.77
2018-12-26T00:21:20.541Z,9.00
2018-12-26T00:23:51.445Z,9.20
2018-12-26T00:26:22.290Z,8.67
2018-12-26T00:28:53.172Z,8.70
2018-12-26T00:31:24.060Z,8.87
2018-12-26T00:33:54.993Z,9.63
2018-12-26T00:36:25.926Z,8.23
2018-12-26T00:38:56.895Z,8.70
2018-12-26T00:41:27.792Z,8.53
2018-12-26T00:44:00.707Z,8.00
2018-12-26T00:46:31.627Z,8.27
2018-12-26T00:49:02.577Z,8.10
2018-12-26T00:51:33.615Z,9.30
2018-12-26T00:54:04.602Z,8.60
2018-12-26T00:56:35.546Z,8.77
2018-12-26T00:59:06.556Z,8.87
2018-12-26T01:01:37.435Z,8.93
2018-12-26T01:04:08.426Z,9.20
2018-12-26T01:06:39.431Z,8.87
2018-12-26T01:09:10.779Z,9.40
2018-12-26T01:11:41.671Z,8.63
2018-12-26T01:14:12.628Z,8.80
2018-12-26T01:16:43.590Z,9.73
2018-12-26T01:19:14.555Z,9.33
2018-12-26T01:21:45.528Z,9.20
2018-12-26T01:24:16.459Z,8.60
2018-12-26T01:26:47.353Z,8.50
2018-12-26T01:29:18.318Z,9.03
2018-12-26T01:31:49.271Z,8.70
2018-12-26T01:34:20.151Z,9.50
2018-12-26T01:36:51.023Z,8.90
2018-12-26T01:39:22.019Z,8.50
2018-12-26T01:41:52.903Z,8.87
2018-12-26T01:44:23.923Z,8.93
2018-12-26T01:46:54.833Z,9.03
2018-12-26T01:49:25.725Z,9.63
2018-12-26T01:51:56.719Z,10.07
2018-12-26T01:54:27.645Z,9.90
2018-12-26T01:56:58.544Z,9.43
2018-12-26T01:59:29.509Z,10.20
2018-12-26T02:02:00.433Z,10.83
2018-12-26T02:04:31.679Z,10.73
2018-12-26T02:07:02.655Z,10.17
2018-12-26T02:09:33.621Z,10.37
2018-12-26T02:12:04.597Z,10.37
2018-12-26T02:14:35.592Z,10.00
2018-12-26T02:17:07.207Z,10.40
2018-12-26T02:19:38.269Z,10.30
2018-12-26T02:22:09.288Z,10.00
2018-12-26T02:24:40.313Z,10.37
2018-12-26T02:27:11.229Z,10.77
2018-12-26T02:29:42.163Z,10.50
2018-12-26T02:32:13.206Z,11.30
2018-12-26T02:34:44.173Z,10.77
2018-12-26T02:37:15.115Z,11.27
2018-12-26T02:39:46.070Z,11.33
2018-12-26T02:42:17.026Z,11.30
2018-12-26T02:44:48.013Z,12.33
2018-12-26T02:47:21.009Z,11.73
2018-12-26T02:49:52.020Z,11.20
2018-12-26T02:52:22.983Z,11.93
2018-12-26T02:54:54.031Z,10.93
2018-12-26T02:57:25.026Z,11.40
2018-12-26T02:59:55.947Z,11.37
2018-12-26T03:02:26.864Z,10.50
2018-12-26T03:04:57.886Z,10.83
2018-12-26T03:07:28.788Z,10.80
2018-12-26T03:09:59.788Z,10.77
2018-12-26T03:12:30.909Z,10.43
2018-12-26T03:15:02.026Z,10.90
2018-12-26T03:17:34.536Z,11.03
2018-12-26T03:20:05.589Z,10.30
2018-12-26T03:22:36.604Z,10.70
2018-12-26T03:25:07.648Z,10.60
2018-12-26T03:27:38.738Z,10.70
2018-12-26T03:30:09.741Z,10.50
2018-12-26T03:32:40.701Z,11.67
2018-12-26T03:35:11.766Z,11.37
2018-12-26T03:37:42.868Z,10.73
2018-12-26T03:40:13.936Z,11.57
2018-12-26T03:42:45.029Z,10.77
2018-12-26T03:45:16.330Z,11.67
2018-12-26T03:47:47.450Z,11.03
2018-12-26T03:50:18.476Z,11.23
2018-12-26T03:52:49.754Z,10.53
2018-12-26T03:55:21.004Z,11.10
2018-12-26T03:57:52.028Z,11.23
2018-12-26T04:00:27.350Z,10.70
2018-12-26T04:03:01.575Z,10.57
2018-12-26T04:05:32.628Z,11.20
2018-12-26T04:08:03.834Z,11.13
2018-12-26T04:10:34.913Z,11.53
2018-12-26T04:13:06.264Z,11.57
2018-12-26T04:15:37.423Z,12.27
2018-12-26T04:18:08.539Z,11.73
2018-12-26T04:20:39.654Z,12.13
2018-12-26T04:23:11.004Z,13.03
2018-12-26T04:25:42.001Z,14.17
2018-12-26T04:28:12.861Z,13.93
2018-12-26T04:30:43.862Z,13.60
2018-12-26T04:33:14.846Z,13.33
2018-12-26T04:35:45.880Z,14.83
2018-12-26T04:38:16.778Z,13.07
2018-12-26T04:40:47.722Z,13.23
2018-12-26T04:43:18.649Z,13.30
2018-12-26T04:45:49.741Z,13.83
2018-12-26T04:48:20.757Z,13.63
2018-12-26T04:50:51.848Z,14.00
2018-12-26T04:53:22.835Z,14.07
2018-12-26T04:55:53.938Z,13.50
2018-12-26T04:58:24.975Z,13.37
2018-12-26T05:00:55.941Z,14.00
2018-12-26T05:03:26.958Z,15.03
2018-12-26T05:05:57.947Z,17.47
2018-12-26T05:08:29.008Z,16.37
2018-12-26T05:11:04.399Z,14.60
2018-12-26T05:13:35.397Z,16.50
2018-12-26T05:16:06.453Z,15.97
2018-12-26T05:18:37.556Z,15.67
2018-12-26T05:21:08.679Z,16.63
2018-12-26T05:23:39.784Z,17.90
2018-12-26T05:26:10.881Z,18.93
2018-12-26T05:28:42.110Z,17.23
2018-12-26T05:31:13.000Z,17.63
2018-12-26T05:33:44.000Z,16.53
2018-12-26T05:36:14.989Z,16.20
2018-12-26T05:38:45.981Z,15.63
2018-12-26T05:41:17.049Z,16.07
2018-12-26T05:43:48.321Z,17.90
2018-12-26T05:46:19.587Z,17.10
2018-12-26T05:48:50.603Z,16.57
2018-12-26T05:51:21.747Z,17.60
2018-12-26T05:53:52.791Z,17.83
2018-12-26T05:56:23.839Z,17.60
2018-12-26T05:58:54.779Z,17.67
2018-12-26T06:01:25.827Z,16.93
2018-12-26T06:03:56.739Z,16.60
2018-12-26T06:06:27.667Z,21.17
2018-12-26T06:08:58.628Z,20.87
2018-12-26T06:11:29.721Z,18.70
2018-12-26T06:14:00.964Z,18.47
2018-12-26T06:16:32.093Z,16.93
2018-12-26T06:19:03.080Z,16.47
2018-12-26T06:21:34.088Z,17.50
2018-12-26T06:24:05.289Z,16.50
2018-12-26T06:26:36.171Z,17.47
2018-12-26T06:29:07.094Z,17.23
2018-12-26T06:31:38.152Z,16.57
2018-12-26T06:34:09.271Z,17.77
2018-12-26T06:36:40.364Z,17.70
2018-12-26T06:39:11.687Z,16.50
2018-12-26T06:41:42.659Z,17.33
2018-12-26T06:44:13.626Z,17.60
2018-12-26T06:46:44.700Z,17.47
2018-12-26T06:49:15.730Z,18.60
2018-12-26T06:51:46.693Z,16.83
2018-12-26T06:54:17.578Z,16.47
2018-12-26T06:56:48.498Z,16.63
2018-12-26T06:59:19.530Z,17.30
2018-12-26T07:01:50.519Z,19.27
2018-12-26T07:04:21.648Z,19.17
2018-12-26T07:06:52.704Z,21.17
2018-12-26T07:09:23.698Z,19.03
2018-12-26T07:11:54.785Z,17.37
2018-12-26T07:14:25.837Z,16.37
2018-12-26T07:16:56.800Z,16.57
2018-12-26T07:19:27.684Z,16.63
2018-12-26T07:21:58.668Z,16.20
2018-12-26T07:24:29.635Z,16.30
2018-12-26T07:27:00.566Z,16.47
2018-12-26T07:29:31.539Z,18.13
2018-12-26T07:32:02.590Z,17.10
2018-12-26T07:34:41.977Z,16.70
2018-12-26T07:37:06.172Z,16.17
2018-12-26T07:39:37.152Z,15.80
2018-12-26T07:42:08.054Z,16.93
2018-12-26T07:44:39.129Z,17.00
2018-12-26T07:47:10.110Z,19.63
2018-12-26T07:49:41.064Z,17.00
2018-12-26T07:52:12.088Z,16.23
2018-12-26T07:54:42.978Z,16.00
2018-12-26T07:57:13.891Z,16.80
2018-12-26T07:59:44.798Z,16.23
2018-12-26T08:02:15.838Z,17.07
2018-12-26T08:04:46.832Z,17.33
2018-12-26T08:07:17.867Z,16.53
2018-12-26T08:09:48.770Z,16.70
2018-12-26T08:12:19.707Z,15.83
2018-12-26T08:14:50.596Z,15.37
2018-12-26T08:17:21.552Z,15.73
2018-12-26T08:19:52.462Z,15.83
2018-12-26T08:22:23.387Z,15.77
2018-12-26T08:25:20.227Z,17.23
2018-12-26T08:27:52.190Z,22.87
2018-12-26T08:30:23.351Z,22.97
2018-12-26T08:32:54.242Z,13.73
2018-12-26T08:35:25.101Z,10.17
2018-12-26T08:37:56.097Z,10.03
2018-12-26T08:40:26.989Z,9.27
2018-12-26T08:42:57.995Z,9.00
2018-12-26T08:45:28.948Z,8.80
2018-12-26T08:47:59.896Z,8.93
2018-12-26T08:50:30.911Z,8.97
2018-12-26T08:53:01.777Z,8.63
2018-12-26T08:55:31.688Z,8.83
2018-12-26T08:58:02.370Z,10.10
2018-12-26T09:00:33.493Z,10.10
2018-12-26T09:03:04.554Z,9.60
2018-12-26T09:05:35.443Z,8.87
2018-12-26T09:08:06.456Z,8.33
2018-12-26T09:10:37.488Z,8.30
2018-12-26T09:13:08.418Z,8.80
2018-12-26T09:15:39.504Z,8.80
2018-12-26T09:18:10.460Z,8.77
2018-12-26T09:20:41.343Z,7.40
2018-12-26T09:23:12.390Z,8.17
2018-12-26T09:25:43.493Z,8.17
2018-12-26T09:28:14.435Z,8.03
2018-12-26T09:30:45.381Z,7.77
2018-12-26T09:33:16.286Z,7.80
2018-12-26T09:35:47.173Z,7.43
2018-12-26T09:38:18.074Z,7.97
2018-12-26T09:40:48.944Z,8.37
2018-12-26T09:43:20.038Z,7.87
2018-12-26T09:45:50.929Z,7.60
2018-12-26T09:48:21.963Z,7.77
2018-12-26T09:50:52.832Z,7.30
2018-12-26T09:53:23.789Z,7.80
2018-12-26T09:55:54.663Z,6.80
2018-12-26T09:58:25.623Z,6.90
2018-12-26T10:00:56.741Z,7.40
2018-12-26T10:03:27.732Z,7.03
2018-12-26T10:05:58.698Z,6.97
2018-12-26T10:08:29.644Z,7.30
2018-12-26T10:11:00.516Z,7.17
2018-12-26T10:13:31.486Z,7.50
2018-12-26T10:16:02.554Z,6.93
2018-12-26T10:18:33.593Z,7.40
2018-12-26T10:21:04.608Z,6.70
2018-12-26T10:23:35.543Z,6.10
2018-12-26T10:26:06.507Z,5.00
2018-12-26T10:28:37.471Z,4.17
2018-12-26T10:31:09.483Z,4.90
2018-12-26T10:33:40.456Z,4.80
2018-12-26T10:36:11.348Z,5.40
2018-12-26T10:38:42.365Z,5.20
2018-12-26T10:41:13.311Z,5.40
2018-12-26T10:43:44.283Z,5.10
2018-12-26T10:46:15.200Z,5.30
2018-12-26T10:48:46.091Z,5.50
2018-12-26T10:51:17.023Z,5.50
2018-12-26T10:53:47.909Z,5.87
2018-12-26T10:56:18.981Z,5.90
2018-12-26T10:58:49.985Z,5.77
2018-12-26T11:01:20.881Z,6.07
2018-12-26T11:03:51.812Z,6.40
2018-12-26T11:06:22.695Z,6.20
2018-12-26T11:08:53.705Z,5.73
2018-12-26T11:11:24.565Z,6.80
2018-12-26T11:13:55.634Z,5.90
2018-12-26T11:16:26.736Z,6.17
2018-12-26T11:18:57.807Z,6.37
2018-12-26T11:21:28.730Z,5.83
2018-12-26T11:23:59.742Z,5.50
2018-12-26T11:26:30.754Z,4.80
2018-12-26T11:29:01.808Z,5.47
2018-12-26T11:31:32.861Z,5.70
2018-12-26T11:34:03.726Z,4.37
2018-12-26T11:36:34.816Z,3.97
2018-12-26T11:39:06.810Z,3.70
2018-12-26T11:41:37.828Z,3.73
2018-12-26T11:44:08.809Z,4.20
2018-12-26T11:46:39.707Z,5.00
2018-12-26T11:49:10.677Z,5.10
2018-12-26T11:51:41.628Z,8.07
2018-12-26T11:54:12.570Z,5.03
2018-12-26T11:56:43.462Z,4.93
2018-12-26T11:59:14.451Z,10.47
2018-12-26T12:01:45.460Z,5.70
2018-12-26T12:04:16.642Z,5.33
2018-12-26T12:06:47.598Z,4.77
2018-12-26T12:09:18.624Z,4.73
2018-12-26T12:11:49.728Z,5.50
2018-12-26T12:14:20.664Z,4.33
2018-12-26T12:16:51.708Z,4.53
2018-12-26T12:19:22.749Z,6.80
2018-12-26T12:21:53.803Z,5.00
2018-12-26T12:24:24.751Z,5.70
2018-12-26T12:26:55.746Z,8.83
2018-12-26T12:29:26.756Z,10.80
2018-12-26T12:31:57.792Z,6.60
2018-12-26T12:34:28.766Z,5.17
2018-12-26T12:36:59.700Z,4.57
2018-12-26T12:39:30.723Z,4.40
2018-12-26T12:42:01.694Z,7.00
2018-12-26T12:44:32.709Z,5.03
2018-12-26T12:47:03.742Z,5.17
2018-12-26T12:49:34.777Z,6.07
2018-12-26T12:52:05.759Z,5.37
2018-12-26T12:54:36.737Z,4.57
2018-12-26T12:57:07.783Z,5.47
2018-12-26T12:59:44.712Z,3.97
2018-12-26T13:02:11.736Z,4.87
2018-12-26T13:04:42.869Z,5.00
2018-12-26T13:07:13.839Z,4.63
2018-12-26T13:09:44.791Z,4.93
2018-12-26T13:12:15.923Z,4.70
2018-12-26T13:14:46.893Z,4.00
2018-12-26T13:17:17.937Z,3.80
2018-12-26T13:19:48.838Z,3.77
2018-12-26T13:22:19.746Z,4.03
2018-12-26T13:24:50.717Z,4.07
2018-12-26T13:27:21.683Z,4.30
2018-12-26T13:29:53.921Z,3.27
2018-12-26T13:32:25.186Z,3.77
2018-12-26T13:34:56.171Z,3.80
2018-12-26T13:37:27.151Z,3.80
2018-12-26T13:39:58.195Z,3.73
2018-12-26T13:42:29.269Z,4.10
2018-12-26T13:45:00.233Z,4.00
2018-12-26T13:47:31.193Z,4.20
2018-12-26T13:50:02.225Z,3.97
2018-12-26T13:52:33.273Z,4.00
2018-12-26T13:55:04.666Z,5.27
2018-12-26T13:57:35.638Z,4.20
2018-12-26T14:00:10.311Z,4.57
2018-12-26T14:02:41.364Z,4.10
2018-12-26T14:05:12.340Z,5.23
2018-12-26T14:07:43.285Z,4.90
2018-12-26T14:10:14.278Z,4.93
2018-12-26T14:12:45.240Z,4.20
2018-12-26T14:15:16.314Z,5.00
2018-12-26T14:17:47.251Z,4.57
2018-12-26T14:20:18.296Z,4.53
2018-12-26T14:22:49.281Z,4.93
2018-12-26T14:25:20.340Z,3.90
2018-12-26T14:27:51.466Z,5.13
2018-12-26T14:30:22.322Z,4.60
2018-12-26T14:32:53.302Z,4.73
2018-12-26T14:35:24.280Z,4.30
2018-12-26T14:37:55.244Z,4.30
2018-12-26T14:40:26.226Z,4.93
2018-12-26T14:42:57.213Z,5.20
2018-12-26T14:45:28.338Z,5.20
2018-12-26T14:47:59.377Z,5.53
2018-12-26T14:50:33.383Z,5.30
2018-12-26T14:53:04.476Z,6.03
2018-12-26T14:55:35.441Z,6.00
2018-12-26T14:58:06.488Z,4.60
2018-12-26T15:00:37.472Z,6.73
2018-12-26T15:03:08.431Z,5.67
2018-12-26T15:05:39.475Z,5.20
2018-12-26T15:08:10.392Z,5.23
2018-12-26T15:10:41.487Z,5.70
2018-12-26T15:13:12.554Z,5.37
2018-12-26T15:15:43.515Z,7.70
2018-12-26T15:18:14.457Z,8.63
2018-12-26T15:20:45.427Z,8.43
2018-12-26T15:23:16.515Z,9.37
2018-12-26T15:25:47.643Z,9.37
2018-12-26T15:28:18.808Z,10.13
2018-12-26T15:30:50.153Z,10.67
2018-12-26T15:33:21.214Z,10.10
2018-12-26T15:35:52.234Z,10.70
2018-12-26T15:38:25.544Z,10.37
2018-12-26T15:40:56.631Z,10.80
2018-12-26T15:43:27.608Z,10.97
2018-12-26T15:45:58.654Z,10.43
2018-12-26T15:48:29.647Z,11.10
2018-12-26T15:51:00.561Z,10.93
2018-12-26T15:53:31.600Z,9.70
2018-12-26T15:56:02.617Z,10.63
2018-12-26T15:58:33.610Z,10.30
2018-12-26T16:01:04.630Z,10.23
2018-12-26T16:03:35.592Z,11.37
2018-12-26T16:06:06.692Z,10.50
2018-12-26T16:08:37.569Z,11.33
2018-12-26T16:11:09.011Z,11.10
2018-12-26T16:13:40.088Z,11.23
2018-12-26T16:16:11.174Z,11.47
2018-12-26T16:18:42.234Z,11.10
2018-12-26T16:21:13.191Z,11.50
2018-12-26T16:23:44.144Z,12.10
2018-12-26T16:26:15.293Z,11.10
2018-12-26T16:28:51.467Z,11.17
2018-12-26T16:31:22.356Z,13.90
2018-12-26T16:33:53.353Z,11.73
2018-12-26T16:36:24.415Z,11.53
2018-12-26T16:38:55.478Z,10.90
2018-12-26T16:41:26.580Z,11.53
2018-12-26T16:43:57.573Z,10.77
2018-12-26T16:46:28.607Z,11.10
2018-12-26T16:48:59.976Z,11.53
2018-12-26T16:51:31.006Z,10.90
2018-12-26T16:54:01.976Z,11.40
2018-12-26T16:56:32.969Z,11.27
2018-12-26T16:59:04.065Z,11.40
2018-12-26T17:01:35.029Z,11.93
2018-12-26T17:04:06.069Z,11.43
2018-12-26T17:06:36.934Z,11.17
2018-12-26T17:09:08.617Z,11.33
2018-12-26T17:11:39.754Z,11.23
2018-12-26T17:14:10.720Z,10.70
2018-12-26T17:16:41.794Z,11.10
2018-12-26T17:19:12.785Z,10.90
2018-12-26T17:21:43.767Z,11.77
2018-12-26T17:24:16.727Z,13.47
2018-12-26T17:26:47.393Z,12.10
2018-12-26T17:29:19.792Z,11.23
2018-12-26T17:31:50.713Z,12.47
2018-12-26T17:34:21.783Z,11.90
2018-12-26T17:36:52.808Z,12.53
2018-12-26T17:39:23.740Z,12.20
2018-12-26T17:41:54.762Z,12.50
2018-12-26T17:44:25.648Z,13.00
2018-12-26T17:46:56.624Z,13.07
2018-12-26T17:49:33.141Z,13.73
2018-12-26T17:52:04.241Z,14.00
2018-12-26T17:54:38.629Z,13.17
2018-12-26T17:57:09.624Z,15.13
2018-12-26T17:59:46.393Z,13.63
2018-12-26T18:02:20.429Z,15.83
2018-12-26T18:04:51.477Z,14.90
2018-12-26T18:07:22.429Z,18.87
2018-12-26T18:09:53.352Z,15.90
2018-12-26T18:12:24.471Z,17.60
2018-12-26T18:14:55.523Z,16.87
2018-12-26T18:17:26.624Z,18.20
2018-12-26T18:20:03.004Z,21.83
2018-12-26T18:22:37.555Z,18.57
2018-12-26T18:25:08.781Z,21.17
2018-12-26T18:27:39.890Z,24.07
2018-12-26T18:30:10.947Z,21.20
2018-12-26T18:32:41.934Z,21.33
2018-12-26T18:35:12.941Z,21.23
2018-12-26T18:37:43.931Z,21.80
2018-12-26T18:40:15.429Z,21.90
2018-12-26T18:42:46.392Z,21.77
2018-12-26T18:45:17.543Z,21.10
2018-12-26T18:47:48.667Z,21.30
2018-12-26T18:50:19.731Z,20.87
2018-12-26T18:52:50.764Z,21.80
2018-12-26T18:55:21.814Z,21.00
2018-12-26T18:57:52.947Z,21.83
2018-12-26T19:00:23.935Z,21.57
2018-12-26T19:02:54.991Z,20.17
2018-12-26T19:05:26.075Z,19.83
2018-12-26T19:07:57.120Z,19.03
2018-12-26T19:10:37.421Z,19.30
2018-12-26T19:13:08.387Z,18.43
2018-12-26T19:15:39.351Z,21.53
2018-12-26T19:18:10.476Z,24.13
2018-12-26T19:20:41.460Z,24.00
2018-12-26T19:23:12.424Z,20.07
2018-12-26T19:25:43.363Z,19.97
2018-12-26T19:28:14.277Z,19.17
2018-12-26T19:30:45.312Z,18.33
2018-12-26T19:33:16.355Z,20.00
2018-12-26T19:35:47.291Z,20.63
2018-12-26T19:38:18.279Z,22.17
2018-12-26T19:40:49.201Z,21.87
2018-12-26T19:43:20.108Z,20.87
2018-12-26T19:45:51.079Z,19.77
2018-12-26T19:48:22.055Z,20.57
2018-12-26T19:50:53.122Z,19.73
2018-12-26T19:53:24.254Z,22.03
2018-12-26T19:55:55.330Z,20.33
2018-12-26T19:58:26.449Z,28.00
2018-12-26T20:00:57.564Z,20.13
2018-12-26T20:03:28.574Z,20.03
2018-12-26T20:05:59.671Z,19.70
2018-12-26T20:08:30.656Z,20.60
2018-12-26T20:11:01.901Z,19.93
2018-12-26T20:13:32.984Z,20.63
2018-12-26T20:16:04.147Z,19.07
2018-12-26T20:18:35.175Z,18.97
2018-12-26T20:21:06.142Z,20.00
2018-12-26T20:23:37.136Z,18.87
2018-12-26T20:26:08.293Z,20.03
2018-12-26T20:28:39.372Z,19.40
2018-12-26T20:31:10.402Z,19.43
2018-12-26T20:33:41.736Z,19.03
2018-12-26T20:36:12.884Z,24.13
2018-12-26T20:38:43.815Z,18.20
2018-12-26T20:41:14.860Z,20.13
2018-12-26T20:43:46.046Z,20.07
2018-12-26T20:46:17.017Z,19.30
2018-12-26T20:48:48.181Z,19.57
2018-12-26T20:51:19.253Z,20.43
2018-12-26T20:53:50.214Z,19.43
2018-12-26T20:56:21.452Z,19.90
2018-12-26T20:58:52.446Z,20.00
2018-12-26T21:01:23.707Z,19.73
2018-12-26T21:03:54.808Z,19.17
2018-12-26T21:06:25.833Z,19.00
2018-12-26T21:08:56.886Z,18.87
2018-12-26T21:11:27.849Z,19.50
2018-12-26T21:13:58.746Z,19.60
2018-12-26T21:16:29.750Z,20.23
2018-12-26T21:19:00.788Z,19.67
2018-12-26T21:21:31.736Z,18.87
2018-12-26T21:24:06.134Z,19.47
2018-12-26T21:26:37.178Z,19.17
2018-12-26T21:29:08.218Z,18.23
2018-12-26T21:31:39.239Z,30.17
2018-12-26T21:34:10.279Z,19.30
2018-12-26T21:36:41.314Z,20.47
2018-12-26T21:39:12.363Z,20.13
2018-12-26T21:41:43.343Z,20.47
2018-12-26T21:44:14.323Z,20.83
2018-12-26T21:46:45.420Z,20.50
2018-12-26T21:49:16.454Z,20.97
2018-12-26T21:51:47.586Z,19.43
2018-12-26T21:54:18.631Z,20.30
2018-12-26T21:56:49.548Z,21.03
2018-12-26T21:59:20.795Z,20.80
2018-12-26T22:01:51.717Z,21.80
2018-12-26T22:04:22.713Z,20.53
2018-12-26T22:06:53.865Z,20.00
2018-12-26T22:09:25.127Z,22.07
2018-12-26T22:11:56.078Z,20.37
2018-12-26T22:14:27.086Z,22.60
2018-12-26T22:16:58.431Z,21.07
2018-12-26T22:19:29.564Z,21.23
2018-12-26T22:22:00.527Z,21.37
2018-12-26T22:24:31.547Z,21.03
2018-12-26T22:27:02.451Z,20.23
2018-12-26T22:29:33.413Z,20.67
2018-12-26T22:32:04.458Z,19.60
2018-12-26T22:34:35.476Z,20.93
2018-12-26T22:37:06.495Z,20.63
2018-12-26T22:39:37.389Z,19.83
2018-12-26T22:42:08.445Z,20.53
2018-12-26T22:44:39.458Z,19.60
2018-12-26T22:47:10.440Z,20.07
2018-12-26T22:49:41.397Z,19.80
2018-12-26T22:52:12.434Z,20.67
2018-12-26T22:54:43.388Z,20.93
2018-12-26T22:57:14.384Z,20.03
2018-12-26T22:59:45.309Z,19.27
2018-12-26T23:02:16.249Z,19.10
2018-12-26T23:04:47.288Z,20.10
2018-12-26T23:07:18.270Z,24.67
2018-12-26T23:09:49.213Z,20.13
2018-12-26T23:12:20.194Z,30.27
2018-12-26T23:14:51.102Z,20.17
2018-12-26T23:17:22.078Z,21.83
2018-12-26T23:19:53.066Z,27.90
2018-12-26T23:22:24.075Z,20.00
2018-12-26T23:24:55.245Z,19.10
2018-12-26T23:27:26.218Z,18.57
2018-12-26T23:29:57.252Z,18.73
2018-12-26T23:32:28.160Z,17.73
2018-12-26T23:34:59.714Z,17.77
2018-12-26T23:37:30.963Z,18.33
2018-12-26T23:40:02.055Z,18.23
2018-12-26T23:42:32.966Z,18.63
2018-12-26T23:45:03.936Z,17.77
2018-12-26T23:47:34.924Z,17.33
2018-12-26T23:50:05.860Z,16.97
2018-12-26T23:52:36.851Z,17.70
2018-12-26T23:55:07.822Z,16.77
2018-12-26T23:57:38.786Z,17.50
